sensor_id;sensor_type;location;lat;lon;timestamp;P1;durP1;ratioP1;P2;durP2;ratioP2
4839;SDS011;2434;48.486;7.964;2023-08-01T00:01:19;8.30;;;4.03;;
4839;SDS011;2434;48.486;7.964;2023-08-01T00:03:48;7.00;;;3.30;;
4839;SDS011;2434;48.486;7.964;2023-08-01T00:06:16;6.90;;;3.53;;
4839;SDS011;2434;48.486;7.964;2023-08-01T00:08:46;8.37;;;3.63;;
4839;SDS011;2434;48.486;7.964;2023-08-01T00:11:14;7.53;;;3.23;;
4839;SDS011;2434;48.486;7.964;2023-08-01T00:13:44;8.90;;;3.90;;
4839;SDS011;2434;48.486;7.964;2023-08-01T00:16:12;5.60;;;2.93;;
4839;SDS011;2434;48.486;7.964;2023-08-01T00:18:41;6.00;;;3.10;;
4839;SDS011;2434;48.486;7.964;2023-08-01T00:21:10;5.87;;;3.40;;
4839;SDS011;2434;48.486;7.964;2023-08-01T00:23:38;6.30;;;3.40;;
4839;SDS011;2434;48.486;7.964;2023-08-01T00:26:06;8.40;;;4.30;;
4839;SDS011;2434;48.486;7.964;2023-08-01T00:28:35;6.17;;;3.67;;
4839;SDS011;2434;48.486;7.964;2023-08-01T00:31:05;8.83;;;3.83;;
4839;SDS011;2434;48.486;7.964;2023-08-01T00:33:35;7.57;;;3.30;;
4839;SDS011;2434;48.486;7.964;2023-08-01T00:36:04;6.40;;;3.60;;
4839;SDS011;2434;48.486;7.964;2023-08-01T00:38:36;8.70;;;4.10;;
4839;SDS011;2434;48.486;7.964;2023-08-01T00:41:04;10.13;;;3.57;;
4839;SDS011;2434;48.486;7.964;2023-08-01T00:43:33;6.17;;;3.67;;
4839;SDS011;2434;48.486;7.964;2023-08-01T00:46:02;5.50;;;3.40;;
4839;SDS011;2434;48.486;7.964;2023-08-01T00:48:33;5.93;;;3.80;;
4839;SDS011;2434;48.486;7.964;2023-08-01T00:51:03;4.80;;;3.10;;
4839;SDS011;2434;48.486;7.964;2023-08-01T00:53:32;7.83;;;3.17;;
4839;SDS011;2434;48.486;7.964;2023-08-01T00:56:02;4.53;;;3.03;;
4839;SDS011;2434;48.486;7.964;2023-08-01T00:58:31;6.63;;;3.70;;
4839;SDS011;2434;48.486;7.964;2023-08-01T01:00:59;4.30;;;3.40;;
4839;SDS011;2434;48.486;7.964;2023-08-01T01:03:30;5.70;;;3.80;;
4839;SDS011;2434;48.486;7.964;2023-08-01T01:06:02;7.13;;;3.13;;
4839;SDS011;2434;48.486;7.964;2023-08-01T01:08:35;8.17;;;3.50;;
4839;SDS011;2434;48.486;7.964;2023-08-01T01:11:04;6.90;;;3.57;;
4839;SDS011;2434;48.486;7.964;2023-08-01T01:13:32;8.70;;;3.57;;
4839;SDS011;2434;48.486;7.964;2023-08-01T01:16:00;7.90;;;3.93;;
4839;SDS011;2434;48.486;7.964;2023-08-01T01:18:29;4.77;;;3.07;;
4839;SDS011;2434;48.486;7.964;2023-08-01T01:20:59;10.47;;;3.70;;
4839;SDS011;2434;48.486;7.964;2023-08-01T01:23:27;8.43;;;3.63;;
4839;SDS011;2434;48.486;7.964;2023-08-01T01:25:56;5.30;;;3.97;;
4839;SDS011;2434;48.486;7.964;2023-08-01T01:28:25;7.10;;;3.83;;
4839;SDS011;2434;48.486;7.964;2023-08-01T01:30:54;8.57;;;3.77;;
4839;SDS011;2434;48.486;7.964;2023-08-01T01:33:25;7.60;;;3.70;;
4839;SDS011;2434;48.486;7.964;2023-08-01T01:35:54;7.13;;;3.53;;
4839;SDS011;2434;48.486;7.964;2023-08-01T01:38:23;4.60;;;2.70;;
4839;SDS011;2434;48.486;7.964;2023-08-01T01:40:52;9.73;;;3.30;;
4839;SDS011;2434;48.486;7.964;2023-08-01T01:43:20;10.73;;;3.70;;
4839;SDS011;2434;48.486;7.964;2023-08-01T01:45:48;7.17;;;3.27;;
4839;SDS011;2434;48.486;7.964;2023-08-01T01:48:17;5.93;;;3.40;;
4839;SDS011;2434;48.486;7.964;2023-08-01T01:50:45;6.70;;;3.40;;
4839;SDS011;2434;48.486;7.964;2023-08-01T01:53:13;10.10;;;3.40;;
4839;SDS011;2434;48.486;7.964;2023-08-01T01:55:43;5.30;;;3.10;;
4839;SDS011;2434;48.486;7.964;2023-08-01T01:58:13;6.80;;;3.37;;
4839;SDS011;2434;48.486;7.964;2023-08-01T02:00:41;9.10;;;2.97;;
4839;SDS011;2434;48.486;7.964;2023-08-01T02:03:09;5.33;;;3.00;;
4839;SDS011;2434;48.486;7.964;2023-08-01T02:05:39;6.13;;;3.57;;
4839;SDS011;2434;48.486;7.964;2023-08-01T02:08:08;9.47;;;3.80;;
4839;SDS011;2434;48.486;7.964;2023-08-01T02:10:36;7.13;;;3.70;;
4839;SDS011;2434;48.486;7.964;2023-08-01T02:13:06;7.00;;;3.80;;
4839;SDS011;2434;48.486;7.964;2023-08-01T02:15:34;6.43;;;3.53;;
4839;SDS011;2434;48.486;7.964;2023-08-01T02:18:02;7.63;;;3.43;;
4839;SDS011;2434;48.486;7.964;2023-08-01T02:20:31;4.70;;;3.00;;
4839;SDS011;2434;48.486;7.964;2023-08-01T02:22:59;8.87;;;4.30;;
4839;SDS011;2434;48.486;7.964;2023-08-01T02:25:27;6.30;;;3.40;;
4839;SDS011;2434;48.486;7.964;2023-08-01T02:27:56;7.03;;;3.63;;
4839;SDS011;2434;48.486;7.964;2023-08-01T02:30:26;7.90;;;3.50;;
4839;SDS011;2434;48.486;7.964;2023-08-01T02:32:55;9.30;;;3.30;;
4839;SDS011;2434;48.486;7.964;2023-08-01T02:35:24;8.10;;;4.07;;
4839;SDS011;2434;48.486;7.964;2023-08-01T02:37:52;6.87;;;3.80;;
4839;SDS011;2434;48.486;7.964;2023-08-01T02:40:21;7.47;;;3.83;;
4839;SDS011;2434;48.486;7.964;2023-08-01T02:42:49;6.93;;;3.77;;
4839;SDS011;2434;48.486;7.964;2023-08-01T02:45:18;5.40;;;3.50;;
4839;SDS011;2434;48.486;7.964;2023-08-01T02:47:47;8.00;;;3.77;;
4839;SDS011;2434;48.486;7.964;2023-08-01T02:50:16;6.97;;;3.63;;
4839;SDS011;2434;48.486;7.964;2023-08-01T02:52:44;7.50;;;4.27;;
4839;SDS011;2434;48.486;7.964;2023-08-01T02:55:12;7.50;;;3.40;;
4839;SDS011;2434;48.486;7.964;2023-08-01T02:57:41;5.77;;;3.60;;
4839;SDS011;2434;48.486;7.964;2023-08-01T03:00:09;9.10;;;4.40;;
4839;SDS011;2434;48.486;7.964;2023-08-01T03:02:38;9.87;;;3.70;;
4839;SDS011;2434;48.486;7.964;2023-08-01T03:05:09;8.13;;;4.13;;
4839;SDS011;2434;48.486;7.964;2023-08-01T03:07:37;6.93;;;3.60;;
4839;SDS011;2434;48.486;7.964;2023-08-01T03:10:07;9.20;;;3.97;;
4839;SDS011;2434;48.486;7.964;2023-08-01T03:12:45;6.67;;;3.93;;
4839;SDS011;2434;48.486;7.964;2023-08-01T03:15:13;7.73;;;3.80;;
4839;SDS011;2434;48.486;7.964;2023-08-01T03:17:41;8.00;;;3.63;;
4839;SDS011;2434;48.486;7.964;2023-08-01T03:20:11;6.77;;;3.60;;
4839;SDS011;2434;48.486;7.964;2023-08-01T03:22:40;7.40;;;3.97;;
4839;SDS011;2434;48.486;7.964;2023-08-01T03:25:09;8.37;;;4.10;;
4839;SDS011;2434;48.486;7.964;2023-08-01T03:27:37;7.70;;;3.67;;
4839;SDS011;2434;48.486;7.964;2023-08-01T03:30:05;6.37;;;4.40;;
4839;SDS011;2434;48.486;7.964;2023-08-01T03:32:35;5.13;;;3.23;;
4839;SDS011;2434;48.486;7.964;2023-08-01T03:35:04;5.23;;;3.47;;
4839;SDS011;2434;48.486;7.964;2023-08-01T03:37:34;8.43;;;3.43;;
4839;SDS011;2434;48.486;7.964;2023-08-01T03:40:04;9.30;;;4.30;;
4839;SDS011;2434;48.486;7.964;2023-08-01T03:42:35;8.37;;;4.17;;
4839;SDS011;2434;48.486;7.964;2023-08-01T03:45:05;7.07;;;3.57;;
4839;SDS011;2434;48.486;7.964;2023-08-01T03:47:34;9.20;;;4.77;;
4839;SDS011;2434;48.486;7.964;2023-08-01T03:50:02;8.00;;;4.03;;
4839;SDS011;2434;48.486;7.964;2023-08-01T03:52:30;5.40;;;3.60;;
4839;SDS011;2434;48.486;7.964;2023-08-01T03:55:00;6.77;;;3.63;;
4839;SDS011;2434;48.486;7.964;2023-08-01T03:57:28;7.47;;;4.10;;
4839;SDS011;2434;48.486;7.964;2023-08-01T03:59:57;6.10;;;3.67;;
4839;SDS011;2434;48.486;7.964;2023-08-01T04:02:25;11.60;;;4.87;;
4839;SDS011;2434;48.486;7.964;2023-08-01T04:04:53;7.70;;;4.30;;
4839;SDS011;2434;48.486;7.964;2023-08-01T04:07:22;8.83;;;4.10;;
4839;SDS011;2434;48.486;7.964;2023-08-01T04:09:50;9.33;;;4.30;;
4839;SDS011;2434;48.486;7.964;2023-08-01T04:12:21;6.77;;;3.77;;
4839;SDS011;2434;48.486;7.964;2023-08-01T04:14:50;9.93;;;4.00;;
4839;SDS011;2434;48.486;7.964;2023-08-01T04:17:18;6.13;;;3.70;;
4839;SDS011;2434;48.486;7.964;2023-08-01T04:19:46;10.47;;;4.07;;
4839;SDS011;2434;48.486;7.964;2023-08-01T04:22:14;5.57;;;3.63;;
4839;SDS011;2434;48.486;7.964;2023-08-01T04:24:43;8.77;;;4.20;;
4839;SDS011;2434;48.486;7.964;2023-08-01T04:27:11;7.63;;;3.90;;
4839;SDS011;2434;48.486;7.964;2023-08-01T04:29:41;6.30;;;3.60;;
4839;SDS011;2434;48.486;7.964;2023-08-01T04:32:09;9.53;;;4.93;;
4839;SDS011;2434;48.486;7.964;2023-08-01T04:34:40;8.63;;;4.60;;
4839;SDS011;2434;48.486;7.964;2023-08-01T04:37:08;12.90;;;4.67;;
4839;SDS011;2434;48.486;7.964;2023-08-01T04:39:37;9.73;;;4.13;;
4839;SDS011;2434;48.486;7.964;2023-08-01T04:42:06;8.20;;;4.43;;
4839;SDS011;2434;48.486;7.964;2023-08-01T04:44:34;8.10;;;3.53;;
4839;SDS011;2434;48.486;7.964;2023-08-01T04:47:04;7.97;;;3.87;;
4839;SDS011;2434;48.486;7.964;2023-08-01T04:49:33;9.57;;;4.27;;
4839;SDS011;2434;48.486;7.964;2023-08-01T04:52:01;7.10;;;3.80;;
4839;SDS011;2434;48.486;7.964;2023-08-01T04:54:33;8.10;;;4.57;;
4839;SDS011;2434;48.486;7.964;2023-08-01T04:57:01;7.97;;;3.47;;
4839;SDS011;2434;48.486;7.964;2023-08-01T04:59:30;7.03;;;4.30;;
4839;SDS011;2434;48.486;7.964;2023-08-01T05:01:58;9.00;;;4.10;;
4839;SDS011;2434;48.486;7.964;2023-08-01T05:04:28;11.33;;;4.30;;
4839;SDS011;2434;48.486;7.964;2023-08-01T05:06:56;7.67;;;4.47;;
4839;SDS011;2434;48.486;7.964;2023-08-01T05:09:24;8.40;;;3.60;;
4839;SDS011;2434;48.486;7.964;2023-08-01T05:11:53;5.40;;;3.70;;
4839;SDS011;2434;48.486;7.964;2023-08-01T05:14:21;6.70;;;3.90;;
4839;SDS011;2434;48.486;7.964;2023-08-01T05:16:49;9.70;;;4.20;;
4839;SDS011;2434;48.486;7.964;2023-08-01T05:19:17;7.10;;;4.03;;
4839;SDS011;2434;48.486;7.964;2023-08-01T05:21:47;9.80;;;5.40;;
4839;SDS011;2434;48.486;7.964;2023-08-01T05:24:15;7.93;;;4.17;;
4839;SDS011;2434;48.486;7.964;2023-08-01T05:26:44;9.60;;;4.67;;
4839;SDS011;2434;48.486;7.964;2023-08-01T05:29:12;12.80;;;4.23;;
4839;SDS011;2434;48.486;7.964;2023-08-01T05:31:40;15.20;;;5.40;;
4839;SDS011;2434;48.486;7.964;2023-08-01T05:34:09;8.63;;;4.50;;
4839;SDS011;2434;48.486;7.964;2023-08-01T05:36:37;11.23;;;4.07;;
4839;SDS011;2434;48.486;7.964;2023-08-01T05:39:07;10.33;;;3.97;;
4839;SDS011;2434;48.486;7.964;2023-08-01T05:41:35;8.10;;;3.97;;
4839;SDS011;2434;48.486;7.964;2023-08-01T05:44:04;10.07;;;3.90;;
4839;SDS011;2434;48.486;7.964;2023-08-01T05:46:32;8.37;;;3.73;;
4839;SDS011;2434;48.486;7.964;2023-08-01T05:49:01;9.20;;;4.00;;
4839;SDS011;2434;48.486;7.964;2023-08-01T05:51:29;9.20;;;3.83;;
4839;SDS011;2434;48.486;7.964;2023-08-01T05:53:57;5.63;;;3.80;;
4839;SDS011;2434;48.486;7.964;2023-08-01T05:56:27;7.20;;;3.47;;
4839;SDS011;2434;48.486;7.964;2023-08-01T05:58:56;6.10;;;3.70;;
4839;SDS011;2434;48.486;7.964;2023-08-01T06:01:24;11.07;;;4.07;;
4839;SDS011;2434;48.486;7.964;2023-08-01T06:03:53;11.03;;;4.40;;
4839;SDS011;2434;48.486;7.964;2023-08-01T06:06:21;8.47;;;4.03;;
4839;SDS011;2434;48.486;7.964;2023-08-01T06:08:50;11.10;;;4.63;;
4839;SDS011;2434;48.486;7.964;2023-08-01T06:11:18;7.23;;;4.43;;
4839;SDS011;2434;48.486;7.964;2023-08-01T06:13:48;12.97;;;5.40;;
4839;SDS011;2434;48.486;7.964;2023-08-01T06:16:16;15.80;;;4.60;;
4839;SDS011;2434;48.486;7.964;2023-08-01T06:18:45;9.17;;;4.67;;
4839;SDS011;2434;48.486;7.964;2023-08-01T06:21:13;10.73;;;4.90;;
4839;SDS011;2434;48.486;7.964;2023-08-01T06:23:41;7.93;;;4.60;;
4839;SDS011;2434;48.486;7.964;2023-08-01T06:26:10;7.13;;;4.30;;
4839;SDS011;2434;48.486;7.964;2023-08-01T06:28:38;9.23;;;4.13;;
4839;SDS011;2434;48.486;7.964;2023-08-01T06:31:08;11.73;;;4.73;;
4839;SDS011;2434;48.486;7.964;2023-08-01T06:33:36;9.23;;;4.13;;
4839;SDS011;2434;48.486;7.964;2023-08-01T06:36:04;7.40;;;3.80;;
4839;SDS011;2434;48.486;7.964;2023-08-01T06:38:33;5.53;;;3.80;;
4839;SDS011;2434;48.486;7.964;2023-08-01T06:41:01;8.07;;;3.13;;
4839;SDS011;2434;48.486;7.964;2023-08-01T06:43:30;6.90;;;3.97;;
4839;SDS011;2434;48.486;7.964;2023-08-01T06:45:58;6.50;;;3.60;;
4839;SDS011;2434;48.486;7.964;2023-08-01T06:48:28;9.13;;;4.17;;
4839;SDS011;2434;48.486;7.964;2023-08-01T06:50:58;7.70;;;3.60;;
4839;SDS011;2434;48.486;7.964;2023-08-01T06:53:26;7.57;;;3.50;;
4839;SDS011;2434;48.486;7.964;2023-08-01T06:55:54;9.83;;;3.90;;
4839;SDS011;2434;48.486;7.964;2023-08-01T06:58:22;6.13;;;3.30;;
4839;SDS011;2434;48.486;7.964;2023-08-01T07:00:50;5.63;;;3.43;;
4839;SDS011;2434;48.486;7.964;2023-08-01T07:03:19;10.60;;;4.53;;
4839;SDS011;2434;48.486;7.964;2023-08-01T07:05:48;12.63;;;4.07;;
4839;SDS011;2434;48.486;7.964;2023-08-01T07:08:18;7.33;;;4.13;;
4839;SDS011;2434;48.486;7.964;2023-08-01T07:10:47;12.50;;;4.30;;
4839;SDS011;2434;48.486;7.964;2023-08-01T07:13:15;7.40;;;3.53;;
4839;SDS011;2434;48.486;7.964;2023-08-01T07:15:46;8.10;;;4.23;;
4839;SDS011;2434;48.486;7.964;2023-08-01T07:18:14;9.90;;;4.40;;
4839;SDS011;2434;48.486;7.964;2023-08-01T07:20:43;10.27;;;4.30;;
4839;SDS011;2434;48.486;7.964;2023-08-01T07:23:12;8.50;;;4.30;;
4839;SDS011;2434;48.486;7.964;2023-08-01T07:25:40;6.43;;;3.97;;
4839;SDS011;2434;48.486;7.964;2023-08-01T07:28:09;8.17;;;3.67;;
4839;SDS011;2434;48.486;7.964;2023-08-01T07:30:37;11.53;;;4.80;;
4839;SDS011;2434;48.486;7.964;2023-08-01T07:33:05;8.73;;;3.87;;
4839;SDS011;2434;48.486;7.964;2023-08-01T07:35:33;8.10;;;3.87;;
4839;SDS011;2434;48.486;7.964;2023-08-01T07:38:02;9.03;;;4.40;;
4839;SDS011;2434;48.486;7.964;2023-08-01T07:40:31;7.07;;;4.27;;
4839;SDS011;2434;48.486;7.964;2023-08-01T07:43:00;9.27;;;4.30;;
4839;SDS011;2434;48.486;7.964;2023-08-01T07:45:28;14.70;;;4.50;;
4839;SDS011;2434;48.486;7.964;2023-08-01T07:47:56;6.33;;;3.50;;
4839;SDS011;2434;48.486;7.964;2023-08-01T07:50:25;6.50;;;4.13;;
4839;SDS011;2434;48.486;7.964;2023-08-01T07:52:54;6.53;;;3.90;;
4839;SDS011;2434;48.486;7.964;2023-08-01T07:55:22;6.87;;;3.60;;
4839;SDS011;2434;48.486;7.964;2023-08-01T07:57:51;7.93;;;3.87;;
4839;SDS011;2434;48.486;7.964;2023-08-01T08:00:20;10.33;;;4.43;;
4839;SDS011;2434;48.486;7.964;2023-08-01T08:02:48;6.73;;;3.63;;
4839;SDS011;2434;48.486;7.964;2023-08-01T08:05:16;10.13;;;4.10;;
4839;SDS011;2434;48.486;7.964;2023-08-01T08:07:45;10.53;;;5.00;;
4839;SDS011;2434;48.486;7.964;2023-08-01T08:10:13;7.27;;;3.73;;
4839;SDS011;2434;48.486;7.964;2023-08-01T08:12:42;7.20;;;4.03;;
4839;SDS011;2434;48.486;7.964;2023-08-01T08:15:12;6.33;;;3.20;;
4839;SDS011;2434;48.486;7.964;2023-08-01T08:17:42;10.80;;;4.30;;
4839;SDS011;2434;48.486;7.964;2023-08-01T08:20:11;9.10;;;3.80;;
4839;SDS011;2434;48.486;7.964;2023-08-01T08:22:39;8.00;;;4.10;;
4839;SDS011;2434;48.486;7.964;2023-08-01T08:25:08;6.13;;;3.73;;
4839;SDS011;2434;48.486;7.964;2023-08-01T08:27:36;14.40;;;4.70;;
4839;SDS011;2434;48.486;7.964;2023-08-01T08:30:06;7.00;;;3.60;;
4839;SDS011;2434;48.486;7.964;2023-08-01T08:32:36;5.63;;;2.90;;
4839;SDS011;2434;48.486;7.964;2023-08-01T08:35:05;5.60;;;3.40;;
4839;SDS011;2434;48.486;7.964;2023-08-01T08:37:33;6.93;;;4.13;;
4839;SDS011;2434;48.486;7.964;2023-08-01T08:40:04;5.33;;;3.20;;
4839;SDS011;2434;48.486;7.964;2023-08-01T08:42:33;6.33;;;3.30;;
4839;SDS011;2434;48.486;7.964;2023-08-01T08:45:02;5.13;;;2.97;;
4839;SDS011;2434;48.486;7.964;2023-08-01T08:47:35;6.07;;;3.40;;
4839;SDS011;2434;48.486;7.964;2023-08-01T08:50:09;9.93;;;3.40;;
4839;SDS011;2434;48.486;7.964;2023-08-01T08:52:39;5.33;;;2.90;;
4839;SDS011;2434;48.486;7.964;2023-08-01T08:55:08;8.57;;;3.23;;
4839;SDS011;2434;48.486;7.964;2023-08-01T08:57:36;5.87;;;3.27;;
4839;SDS011;2434;48.486;7.964;2023-08-01T09:00:06;5.03;;;3.07;;
4839;SDS011;2434;48.486;7.964;2023-08-01T09:02:37;5.43;;;3.50;;
4839;SDS011;2434;48.486;7.964;2023-08-01T09:05:06;6.10;;;3.30;;
4839;SDS011;2434;48.486;7.964;2023-08-01T09:07:35;9.40;;;3.13;;
4839;SDS011;2434;48.486;7.964;2023-08-01T09:10:08;7.73;;;3.70;;
4839;SDS011;2434;48.486;7.964;2023-08-01T09:12:36;5.43;;;3.60;;
4839;SDS011;2434;48.486;7.964;2023-08-01T09:15:05;8.23;;;3.50;;
4839;SDS011;2434;48.486;7.964;2023-08-01T09:17:35;6.00;;;3.20;;
4839;SDS011;2434;48.486;7.964;2023-08-01T09:20:05;5.30;;;3.30;;
4839;SDS011;2434;48.486;7.964;2023-08-01T09:22:41;7.67;;;3.57;;
4839;SDS011;2434;48.486;7.964;2023-08-01T09:25:10;5.50;;;3.03;;
4839;SDS011;2434;48.486;7.964;2023-08-01T09:27:39;7.53;;;3.70;;
4839;SDS011;2434;48.486;7.964;2023-08-01T09:30:08;11.00;;;4.00;;
4839;SDS011;2434;48.486;7.964;2023-08-01T09:32:40;8.43;;;4.70;;
4839;SDS011;2434;48.486;7.964;2023-08-01T09:35:10;9.30;;;3.87;;
4839;SDS011;2434;48.486;7.964;2023-08-01T09:37:39;6.03;;;2.70;;
4839;SDS011;2434;48.486;7.964;2023-08-01T09:40:08;9.67;;;3.70;;
4839;SDS011;2434;48.486;7.964;2023-08-01T09:42:37;5.97;;;3.10;;
4839;SDS011;2434;48.486;7.964;2023-08-01T09:45:11;5.97;;;3.27;;
4839;SDS011;2434;48.486;7.964;2023-08-01T09:47:40;7.13;;;3.20;;
4839;SDS011;2434;48.486;7.964;2023-08-01T09:50:20;6.17;;;3.13;;
4839;SDS011;2434;48.486;7.964;2023-08-01T09:52:50;6.93;;;3.20;;
4839;SDS011;2434;48.486;7.964;2023-08-01T09:55:20;5.77;;;2.80;;
4839;SDS011;2434;48.486;7.964;2023-08-01T09:57:55;5.60;;;3.10;;
4839;SDS011;2434;48.486;7.964;2023-08-01T10:00:25;6.30;;;2.67;;
4839;SDS011;2434;48.486;7.964;2023-08-01T10:02:54;4.67;;;3.10;;
4839;SDS011;2434;48.486;7.964;2023-08-01T10:05:29;5.83;;;2.90;;
4839;SDS011;2434;48.486;7.964;2023-08-01T10:08:00;5.10;;;2.47;;
4839;SDS011;2434;48.486;7.964;2023-08-01T10:10:30;3.80;;;2.10;;
4839;SDS011;2434;48.486;7.964;2023-08-01T10:12:59;4.63;;;2.07;;
4839;SDS011;2434;48.486;7.964;2023-08-01T10:15:29;3.47;;;1.83;;
4839;SDS011;2434;48.486;7.964;2023-08-01T10:17:57;3.80;;;1.90;;
4839;SDS011;2434;48.486;7.964;2023-08-01T10:20:26;3.30;;;1.43;;
4839;SDS011;2434;48.486;7.964;2023-08-01T10:22:57;3.83;;;1.07;;
4839;SDS011;2434;48.486;7.964;2023-08-01T10:25:26;4.00;;;1.30;;
4839;SDS011;2434;48.486;7.964;2023-08-01T10:27:58;2.13;;;1.30;;
4839;SDS011;2434;48.486;7.964;2023-08-01T10:30:27;2.23;;;1.27;;
4839;SDS011;2434;48.486;7.964;2023-08-01T10:32:56;2.83;;;1.20;;
4839;SDS011;2434;48.486;7.964;2023-08-01T10:35:34;5.27;;;1.20;;
4839;SDS011;2434;48.486;7.964;2023-08-01T10:38:04;3.10;;;1.30;;
4839;SDS011;2434;48.486;7.964;2023-08-01T10:40:34;3.57;;;1.03;;
4839;SDS011;2434;48.486;7.964;2023-08-01T10:43:03;3.93;;;1.60;;
4839;SDS011;2434;48.486;7.964;2023-08-01T10:45:32;2.10;;;1.20;;
4839;SDS011;2434;48.486;7.964;2023-08-01T10:48:07;2.63;;;1.10;;
4839;SDS011;2434;48.486;7.964;2023-08-01T10:50:40;2.07;;;1.23;;
4839;SDS011;2434;48.486;7.964;2023-08-01T10:53:09;3.07;;;1.50;;
4839;SDS011;2434;48.486;7.964;2023-08-01T10:55:38;2.70;;;1.23;;
4839;SDS011;2434;48.486;7.964;2023-08-01T10:58:07;2.13;;;1.17;;
4839;SDS011;2434;48.486;7.964;2023-08-01T11:00:35;3.37;;;1.30;;
4839;SDS011;2434;48.486;7.964;2023-08-01T11:03:04;1.93;;;1.07;;
4839;SDS011;2434;48.486;7.964;2023-08-01T11:05:32;2.27;;;1.37;;
4839;SDS011;2434;48.486;7.964;2023-08-01T11:08:02;2.03;;;1.40;;
4839;SDS011;2434;48.486;7.964;2023-08-01T11:10:32;2.87;;;1.57;;
4839;SDS011;2434;48.486;7.964;2023-08-01T11:13:00;3.80;;;1.47;;
4839;SDS011;2434;48.486;7.964;2023-08-01T11:15:29;3.53;;;1.17;;
4839;SDS011;2434;48.486;7.964;2023-08-01T11:17:57;2.50;;;1.27;;
4839;SDS011;2434;48.486;7.964;2023-08-01T11:20:26;5.50;;;1.23;;
4839;SDS011;2434;48.486;7.964;2023-08-01T11:22:56;2.77;;;1.40;;
4839;SDS011;2434;48.486;7.964;2023-08-01T11:25:35;2.70;;;1.30;;
4839;SDS011;2434;48.486;7.964;2023-08-01T11:28:06;2.17;;;1.13;;
4839;SDS011;2434;48.486;7.964;2023-08-01T11:30:35;2.97;;;1.77;;
4839;SDS011;2434;48.486;7.964;2023-08-01T11:33:12;2.30;;;1.43;;
4839;SDS011;2434;48.486;7.964;2023-08-01T11:35:41;1.50;;;0.90;;
4839;SDS011;2434;48.486;7.964;2023-08-01T11:38:10;4.60;;;1.10;;
4839;SDS011;2434;48.486;7.964;2023-08-01T11:40:40;3.23;;;1.70;;
4839;SDS011;2434;48.486;7.964;2023-08-01T11:43:09;2.30;;;1.20;;
4839;SDS011;2434;48.486;7.964;2023-08-01T11:45:37;2.93;;;1.10;;
4839;SDS011;2434;48.486;7.964;2023-08-01T11:48:15;3.20;;;1.20;;
4839;SDS011;2434;48.486;7.964;2023-08-01T11:50:43;2.63;;;1.70;;
4839;SDS011;2434;48.486;7.964;2023-08-01T11:53:18;3.37;;;1.20;;
4839;SDS011;2434;48.486;7.964;2023-08-01T11:55:48;2.27;;;1.10;;
4839;SDS011;2434;48.486;7.964;2023-08-01T11:58:27;2.77;;;1.57;;
4839;SDS011;2434;48.486;7.964;2023-08-01T12:01:03;3.30;;;1.37;;
4839;SDS011;2434;48.486;7.964;2023-08-01T12:03:41;2.30;;;1.37;;
4839;SDS011;2434;48.486;7.964;2023-08-01T12:06:10;7.43;;;1.50;;
4839;SDS011;2434;48.486;7.964;2023-08-01T12:08:40;4.13;;;1.53;;
4839;SDS011;2434;48.486;7.964;2023-08-01T12:11:21;2.93;;;1.27;;
4839;SDS011;2434;48.486;7.964;2023-08-01T12:14:00;3.60;;;1.23;;
4839;SDS011;2434;48.486;7.964;2023-08-01T12:16:29;2.33;;;1.00;;
4839;SDS011;2434;48.486;7.964;2023-08-01T12:18:58;4.43;;;1.30;;
4839;SDS011;2434;48.486;7.964;2023-08-01T12:21:27;2.30;;;1.27;;
4839;SDS011;2434;48.486;7.964;2023-08-01T12:23:55;2.07;;;1.10;;
4839;SDS011;2434;48.486;7.964;2023-08-01T12:26:25;2.63;;;1.43;;
4839;SDS011;2434;48.486;7.964;2023-08-01T12:28:54;2.47;;;1.23;;
4839;SDS011;2434;48.486;7.964;2023-08-01T12:31:22;2.47;;;1.30;;
4839;SDS011;2434;48.486;7.964;2023-08-01T12:33:51;3.03;;;1.17;;
4839;SDS011;2434;48.486;7.964;2023-08-01T12:36:20;2.77;;;1.20;;
4839;SDS011;2434;48.486;7.964;2023-08-01T12:38:49;1.93;;;1.00;;
4839;SDS011;2434;48.486;7.964;2023-08-01T12:41:17;3.40;;;1.40;;
4839;SDS011;2434;48.486;7.964;2023-08-01T12:43:47;1.93;;;1.13;;
4839;SDS011;2434;48.486;7.964;2023-08-01T12:46:15;3.23;;;1.07;;
4839;SDS011;2434;48.486;7.964;2023-08-01T12:48:43;2.50;;;1.20;;
4839;SDS011;2434;48.486;7.964;2023-08-01T12:51:11;3.10;;;1.40;;
4839;SDS011;2434;48.486;7.964;2023-08-01T12:53:41;2.00;;;1.03;;
4839;SDS011;2434;48.486;7.964;2023-08-01T12:56:12;3.47;;;0.90;;
4839;SDS011;2434;48.486;7.964;2023-08-01T12:58:40;1.93;;;1.00;;
4839;SDS011;2434;48.486;7.964;2023-08-01T13:01:10;2.30;;;1.17;;
4839;SDS011;2434;48.486;7.964;2023-08-01T13:03:38;2.13;;;1.30;;
4839;SDS011;2434;48.486;7.964;2023-08-01T13:06:06;3.97;;;1.40;;
4839;SDS011;2434;48.486;7.964;2023-08-01T13:08:37;2.50;;;1.50;;
4839;SDS011;2434;48.486;7.964;2023-08-01T13:11:09;2.00;;;1.00;;
4839;SDS011;2434;48.486;7.964;2023-08-01T13:13:39;1.83;;;1.10;;
4839;SDS011;2434;48.486;7.964;2023-08-01T13:16:09;2.13;;;1.20;;
4839;SDS011;2434;48.486;7.964;2023-08-01T13:18:37;1.90;;;1.30;;
4839;SDS011;2434;48.486;7.964;2023-08-01T13:21:12;2.03;;;1.03;;
4839;SDS011;2434;48.486;7.964;2023-08-01T13:23:40;2.50;;;1.00;;
4839;SDS011;2434;48.486;7.964;2023-08-01T13:26:09;1.67;;;1.10;;
4839;SDS011;2434;48.486;7.964;2023-08-01T13:28:37;1.87;;;1.10;;
4839;SDS011;2434;48.486;7.964;2023-08-01T13:31:05;4.83;;;0.90;;
4839;SDS011;2434;48.486;7.964;2023-08-01T13:33:35;2.03;;;0.90;;
4839;SDS011;2434;48.486;7.964;2023-08-01T13:36:03;2.57;;;1.20;;
4839;SDS011;2434;48.486;7.964;2023-08-01T13:38:32;1.93;;;0.83;;
4839;SDS011;2434;48.486;7.964;2023-08-01T13:41:00;3.63;;;1.20;;
4839;SDS011;2434;48.486;7.964;2023-08-01T13:43:31;4.00;;;1.50;;
4839;SDS011;2434;48.486;7.964;2023-08-01T13:45:59;3.90;;;1.20;;
4839;SDS011;2434;48.486;7.964;2023-08-01T13:48:34;1.57;;;0.80;;
4839;SDS011;2434;48.486;7.964;2023-08-01T13:51:02;2.63;;;1.20;;
4839;SDS011;2434;48.486;7.964;2023-08-01T13:53:30;4.13;;;1.03;;
4839;SDS011;2434;48.486;7.964;2023-08-01T13:55:59;3.23;;;1.00;;
4839;SDS011;2434;48.486;7.964;2023-08-01T13:58:27;5.70;;;1.00;;
4839;SDS011;2434;48.486;7.964;2023-08-01T14:00:55;6.43;;;1.10;;
4839;SDS011;2434;48.486;7.964;2023-08-01T14:03:29;1.70;;;1.03;;
4839;SDS011;2434;48.486;7.964;2023-08-01T14:06:04;1.80;;;0.80;;
4839;SDS011;2434;48.486;7.964;2023-08-01T14:08:32;2.80;;;1.30;;
4839;SDS011;2434;48.486;7.964;2023-08-01T14:11:01;2.33;;;1.20;;
4839;SDS011;2434;48.486;7.964;2023-08-01T14:13:30;3.30;;;0.90;;
4839;SDS011;2434;48.486;7.964;2023-08-01T14:15:58;2.80;;;1.10;;
4839;SDS011;2434;48.486;7.964;2023-08-01T14:18:28;2.40;;;0.90;;
4839;SDS011;2434;48.486;7.964;2023-08-01T14:20:56;1.50;;;0.90;;
4839;SDS011;2434;48.486;7.964;2023-08-01T14:23:26;4.77;;;1.50;;
4839;SDS011;2434;48.486;7.964;2023-08-01T14:25:56;2.57;;;0.83;;
4839;SDS011;2434;48.486;7.964;2023-08-01T14:28:26;1.80;;;0.80;;
4839;SDS011;2434;48.486;7.964;2023-08-01T14:30:54;3.80;;;1.07;;
4839;SDS011;2434;48.486;7.964;2023-08-01T14:33:22;6.23;;;1.33;;
4839;SDS011;2434;48.486;7.964;2023-08-01T14:35:50;1.67;;;1.10;;
4839;SDS011;2434;48.486;7.964;2023-08-01T14:38:19;1.90;;;1.10;;
4839;SDS011;2434;48.486;7.964;2023-08-01T14:40:48;2.17;;;1.33;;
4839;SDS011;2434;48.486;7.964;2023-08-01T14:43:36;2.07;;;1.00;;
4839;SDS011;2434;48.486;7.964;2023-08-01T14:46:05;3.00;;;1.07;;
4839;SDS011;2434;48.486;7.964;2023-08-01T14:48:33;3.20;;;0.90;;
4839;SDS011;2434;48.486;7.964;2023-08-01T14:51:04;2.50;;;1.10;;
4839;SDS011;2434;48.486;7.964;2023-08-01T14:53:33;1.83;;;1.10;;
4839;SDS011;2434;48.486;7.964;2023-08-01T14:56:02;2.37;;;1.10;;
4839;SDS011;2434;48.486;7.964;2023-08-01T14:58:33;2.80;;;1.40;;
4839;SDS011;2434;48.486;7.964;2023-08-01T15:01:05;1.80;;;0.97;;
4839;SDS011;2434;48.486;7.964;2023-08-01T15:03:39;3.40;;;1.30;;
4839;SDS011;2434;48.486;7.964;2023-08-01T15:06:08;1.87;;;1.07;;
4839;SDS011;2434;48.486;7.964;2023-08-01T15:08:37;1.80;;;1.00;;
4839;SDS011;2434;48.486;7.964;2023-08-01T15:11:07;2.00;;;1.30;;
4839;SDS011;2434;48.486;7.964;2023-08-01T15:13:36;2.33;;;1.20;;
4839;SDS011;2434;48.486;7.964;2023-08-01T15:16:08;2.03;;;1.00;;
4839;SDS011;2434;48.486;7.964;2023-08-01T15:18:36;5.13;;;1.60;;
4839;SDS011;2434;48.486;7.964;2023-08-01T15:21:05;3.43;;;1.27;;
4839;SDS011;2434;48.486;7.964;2023-08-01T15:23:33;2.00;;;1.00;;
4839;SDS011;2434;48.486;7.964;2023-08-01T15:26:01;3.53;;;1.10;;
4839;SDS011;2434;48.486;7.964;2023-08-01T15:28:30;2.20;;;1.40;;